Time;durP1;ratioP1;P1;durP2;ratioP2;P2;SDS_P1;SDS_P2;PMS_P1;PMS_P2;Temp;Humidity;BMP_temperature;BMP_pressure;BME280_temperature;BME280_humidity;BME280_pressure;Samples;Min_cycle;Max_cycle;Signal;HPM_P1;HPM_P2
2023/10/29 05:48:57;;;;;;;5.20;2.70;;;9.60;99.90;;;;;;5071816;27;21211;-81
2023/10/29 05:51:24;;;;;;;5.93;2.53;;;9.60;99.90;;;;;;5042130;28;20481;-81
2023/10/29 05:53:51;;;;;;;3.10;2.13;;;9.60;99.90;;;;;;5056273;28;20231;-81
2023/10/29 05:56:18;;;;;;;4.70;2.37;;;9.60;99.90;;;;;;5039051;28;20255;-81
2023/10/29 05:58:45;;;;;;;3.60;2.33;;;9.60;99.90;;;;;;5039439;28;20220;-81
2023/10/29 06:01:12;;;;;;;2.60;2.20;;;9.60;99.90;;;;;;5036881;28;20219;-82
2023/10/29 06:03:39;;;;;;;4.33;2.10;;;9.70;99.90;;;;;;5038396;28;20686;-82
2023/10/29 06:06:08;;;;;;;3.87;1.97;;;9.70;99.90;;;;;;5041361;28;20326;-82
2023/10/29 06:08:34;;;;;;;5.37;2.17;;;9.70;99.90;;;;;;5054665;28;20296;-81
2023/10/29 06:11:01;;;;;;;4.47;2.10;;;9.80;99.90;;;;;;5035019;28;20241;-81
2023/10/29 06:13:28;;;;;;;5.23;2.93;;;9.80;99.90;;;;;;5033593;28;20593;-81
2023/10/29 06:15:55;;;;;;;4.80;2.20;;;9.80;99.90;;;;;;5037972;28;20224;-82
2023/10/29 06:18:22;;;;;;;3.00;2.20;;;9.80;99.90;;;;;;5038430;28;20972;-82
2023/10/29 06:20:49;;;;;;;3.77;2.10;;;9.90;99.90;;;;;;5039320;28;20219;-81
2023/10/29 06:23:17;;;;;;;3.43;2.20;;;9.90;99.90;;;;;;5036718;28;20227;-82
2023/10/29 06:25:44;;;;;;;3.97;2.03;;;9.90;99.90;;;;;;5039389;28;20683;-81
2023/10/29 06:28:10;;;;;;;3.23;2.07;;;9.90;99.90;;;;;;5040623;28;20311;-82
2023/10/29 06:30:37;;;;;;;2.93;1.40;;;9.90;99.90;;;;;;5036159;28;20307;-84
2023/10/29 06:33:04;;;;;;;3.33;1.53;;;10.00;99.90;;;;;;5036706;28;20251;-83
2023/10/29 06:35:31;;;;;;;3.67;1.70;;;10.00;99.90;;;;;;5039818;28;20224;-84
2023/10/29 06:37:57;;;;;;;2.90;1.87;;;10.00;99.90;;;;;;5039770;28;20232;-84
2023/10/29 06:40:25;;;;;;;5.00;1.70;;;10.10;99.90;;;;;;5039900;28;20396;-83
2023/10/29 06:42:52;;;;;;;3.73;1.67;;;10.00;99.90;;;;;;5040610;28;20355;-84
2023/10/29 06:45:19;;;;;;;3.93;1.63;;;10.10;99.90;;;;;;5039522;28;20858;-83
2023/10/29 06:47:46;;;;;;;3.47;1.73;;;10.20;99.90;;;;;;5038469;28;20231;-83
2023/10/29 06:50:13;;;;;;;1.97;1.70;;;10.10;99.90;;;;;;5035284;28;20220;-83
2023/10/29 06:52:40;;;;;;;2.87;2.30;;;10.20;99.90;;;;;;5031388;28;20647;-83
2023/10/29 06:55:09;;;;;;;3.83;1.90;;;10.20;99.90;;;;;;5038839;28;20224;-84
2023/10/29 06:57:37;;;;;;;5.30;2.53;;;10.20;99.90;;;;;;5040994;28;20230;-83
2023/10/29 07:00:07;;;;;;;5.67;2.10;;;10.20;99.90;;;;;;5020706;28;20228;-85
2023/10/29 07:02:35;;;;;;;3.93;1.50;;;10.20;99.90;;;;;;5012670;28;20231;-84
2023/10/29 07:05:02;;;;;;;3.47;1.60;;;10.30;99.90;;;;;;5023957;28;20228;-84
2023/10/29 07:07:29;;;;;;;3.87;1.50;;;10.30;99.90;;;;;;5026927;28;20321;-83
2023/10/29 07:09:56;;;;;;;4.53;1.40;;;10.30;99.90;;;;;;5030212;28;20691;-83
2023/10/29 07:12:23;;;;;;;2.77;1.57;;;10.30;99.90;;;;;;5026500;28;20228;-83
2023/10/29 07:14:51;;;;;;;3.33;1.50;;;10.30;99.90;;;;;;5024911;28;20225;-82
2023/10/29 07:17:18;;;;;;;3.03;1.20;;;10.30;99.90;;;;;;5025464;28;20720;-83
2023/10/29 07:19:45;;;;;;;3.23;1.50;;;10.40;99.90;;;;;;5024102;28;20225;-82
2023/10/29 07:22:11;;;;;;;1.40;1.30;;;10.40;99.90;;;;;;5027229;28;20578;-82
2023/10/29 07:24:38;;;;;;;3.83;1.30;;;10.40;99.90;;;;;;5026368;28;20830;-84
2023/10/29 07:27:05;;;;;;;2.57;1.47;;;10.40;99.90;;;;;;5026972;28;20234;-82
2023/10/29 07:29:32;;;;;;;5.67;1.70;;;10.50;99.90;;;;;;5029220;28;20223;-83
2023/10/29 07:32:00;;;;;;;5.23;1.80;;;10.50;99.90;;;;;;5025764;28;20231;-82
2023/10/29 07:34:26;;;;;;;1.93;1.07;;;10.50;99.90;;;;;;5027137;28;20304;-83
2023/10/29 07:36:53;;;;;;;3.00;1.33;;;10.50;99.90;;;;;;5022565;28;20284;-82
2023/10/29 07:39:20;;;;;;;2.30;1.30;;;10.60;99.90;;;;;;5031085;28;20226;-84
2023/10/29 07:41:46;;;;;;;3.77;1.20;;;10.60;99.90;;;;;;5023705;28;20233;-85
2023/10/29 07:44:14;;;;;;;4.27;1.53;;;10.60;99.90;;;;;;5028575;28;20236;-83
2023/10/29 07:46:40;;;;;;;3.20;1.60;;;10.70;99.90;;;;;;5018442;28;20598;-86
2023/10/29 07:49:08;;;;;;;4.50;1.30;;;10.70;99.90;;;;;;5024762;28;20655;-86
2023/10/29 07:51:35;;;;;;;3.63;1.40;;;10.80;99.90;;;;;;5027963;28;21034;-87
2023/10/29 07:54:02;;;;;;;5.57;1.17;;;10.90;99.90;;;;;;5025093;28;20233;-86
2023/10/29 07:56:29;;;;;;;2.93;1.30;;;10.90;99.90;;;;;;5028462;28;20217;-90
2023/10/29 07:58:56;;;;;;;4.70;1.40;;;10.90;99.90;;;;;;5024263;28;20226;-87
2023/10/29 08:01:22;;;;;;;2.53;1.27;;;10.90;99.90;;;;;;5023909;28;20225;-87
2023/10/29 08:03:50;;;;;;;2.87;1.30;;;11.00;99.90;;;;;;5030181;28;20227;-88
2023/10/29 08:06:18;;;;;;;1.43;1.07;;;11.00;99.90;;;;;;5026246;28;20222;-89
2023/10/29 08:08:44;;;;;;;4.23;1.17;;;11.00;99.90;;;;;;5026594;28;20352;-86
2023/10/29 08:11:18;;;;;;;2.90;1.20;;;11.10;99.90;;;;;;5020910;28;20214;-91
2023/10/29 08:13:45;;;;;;;2.77;1.27;;;11.10;99.90;;;;;;5024638;28;20768;-87
2023/10/29 08:16:12;;;;;;;2.33;1.10;;;11.10;99.90;;;;;;5023958;28;20233;-88
2023/10/29 08:18:39;;;;;;;4.00;1.20;;;11.10;99.90;;;;;;5030725;28;20279;-87
2023/10/29 08:21:06;;;;;;;2.60;1.00;;;11.20;99.90;;;;;;5020163;28;20292;-85
2023/10/29 08:23:34;;;;;;;1.97;1.27;;;11.20;99.90;;;;;;5025076;28;20724;-90
2023/10/29 08:26:01;;;;;;;3.40;1.03;;;11.20;99.90;;;;;;5024563;28;20234;-87
2023/10/29 08:28:27;;;;;;;3.00;1.37;;;11.20;99.90;;;;;;5025422;28;20221;-87
2023/10/29 08:30:54;;;;;;;1.27;0.90;;;11.20;99.90;;;;;;5029107;28;20711;-87
2023/10/29 08:33:21;;;;;;;1.93;1.00;;;11.30;99.90;;;;;;5020679;28;20849;-88
2023/10/29 08:35:48;;;;;;;2.37;1.10;;;11.30;99.90;;;;;;5022337;28;20303;-86
2023/10/29 08:38:15;;;;;;;1.90;1.27;;;11.30;99.90;;;;;;5029461;28;20236;-85
2023/10/29 08:40:43;;;;;;;2.10;1.10;;;11.30;99.90;;;;;;5032995;28;20237;-83
2023/10/29 08:43:10;;;;;;;3.00;1.20;;;11.30;99.90;;;;;;5028253;28;20230;-84
2023/10/29 08:45:36;;;;;;;2.33;1.30;;;11.30;99.90;;;;;;5016205;28;21200;-85
2023/10/29 08:48:03;;;;;;;2.27;1.10;;;11.30;99.90;;;;;;5025907;28;21369;-83
2023/10/29 08:50:30;;;;;;;2.20;1.40;;;11.40;99.90;;;;;;5025059;28;20580;-83
2023/10/29 08:52:57;;;;;;;3.33;1.20;;;11.40;99.90;;;;;;5023388;28;20731;-83
2023/10/29 08:55:24;;;;;;;3.57;1.20;;;11.50;99.90;;;;;;5017750;28;20233;-85
2023/10/29 08:57:52;;;;;;;1.97;1.00;;;11.70;99.90;;;;;;5017284;28;20226;-84
2023/10/29 09:00:19;;;;;;;2.97;1.23;;;11.80;99.90;;;;;;5017665;28;20283;-84
2023/10/29 09:02:46;;;;;;;2.60;1.03;;;12.00;99.90;;;;;;5014613;28;20657;-83
2023/10/29 09:05:12;;;;;;;3.17;1.20;;;12.20;99.90;;;;;;5016524;28;20797;-83
2023/10/29 09:07:39;;;;;;;1.93;1.03;;;12.40;99.90;;;;;;5011204;28;20246;-86
2023/10/29 09:10:07;;;;;;;3.00;1.17;;;12.60;99.90;;;;;;5020080;28;20227;-87
2023/10/29 09:12:33;;;;;;;2.33;1.10;;;12.90;99.90;;;;;;5020828;28;20330;-86
2023/10/29 09:15:02;;;;;;;17.03;1.40;;;13.10;99.90;;;;;;5017908;28;20227;-85
2023/10/29 09:17:29;;;;;;;2.40;1.00;;;13.40;99.90;;;;;;5011042;28;20593;-86
2023/10/29 09:19:56;;;;;;;2.47;1.10;;;13.60;99.90;;;;;;5017704;28;20783;-83
2023/10/29 09:22:23;;;;;;;4.23;1.00;;;13.80;99.90;;;;;;5014990;28;21157;-85
2023/10/29 09:24:49;;;;;;;1.97;1.00;;;14.10;99.90;;;;;;5027466;28;20321;-84
2023/10/29 09:27:16;;;;;;;3.97;1.17;;;14.30;99.90;;;;;;5027073;28;20690;-84
2023/10/29 09:29:43;;;;;;;3.33;1.20;;;14.40;99.90;;;;;;5027297;28;20230;-85
2023/10/29 09:32:13;;;;;;;3.10;1.23;;;14.40;99.90;;;;;;5019063;28;20224;-84
2023/10/29 09:34:40;;;;;;;2.53;1.37;;;14.30;99.90;;;;;;5028342;28;20636;-84
2023/10/29 09:37:07;;;;;;;3.37;1.20;;;14.20;99.90;;;;;;5028484;28;20596;-85
2023/10/29 09:39:34;;;;;;;1.07;0.97;;;14.20;99.90;;;;;;5020408;28;20245;-83
2023/10/29 09:42:05;;;;;;;2.27;1.13;;;14.20;99.90;;;;;;5027991;28;20241;-84
2023/10/29 09:44:33;;;;;;;2.70;1.00;;;14.30;99.90;;;;;;5026704;28;20240;-83
2023/10/29 09:47:09;;;;;;;1.90;1.00;;;14.40;99.90;;;;;;5028422;28;20231;-83
2023/10/29 09:49:38;;;;;;;1.60;0.87;;;14.60;99.90;;;;;;5028427;28;20236;-84
2023/10/29 09:52:06;;;;;;;0.90;0.77;;;14.80;99.90;;;;;;5025521;28;20595;-82
2023/10/29 09:54:32;;;;;;;2.03;1.00;;;15.10;99.90;;;;;;5030805;28;20227;-83
2023/10/29 09:57:00;;;;;;;1.73;0.80;;;15.30;99.90;;;;;;5034328;28;20246;-83
2023/10/29 09:59:26;;;;;;;1.33;1.10;;;15.50;99.90;;;;;;5026146;28;20251;-84
2023/10/29 10:01:53;;;;;;;4.00;1.00;;;15.60;99.90;;;;;;5026986;28;20246;-82
2023/10/29 10:04:20;;;;;;;5.27;1.10;;;15.80;99.90;;;;;;5028313;28;20224;-83
2023/10/29 10:06:49;;;;;;;2.47;0.80;;;15.80;99.90;;;;;;5029888;28;20305;-84
2023/10/29 10:09:16;;;;;;;2.43;0.80;;;15.90;99.90;;;;;;5032100;28;20242;-83
2023/10/29 10:11:43;;;;;;;2.73;1.03;;;15.90;99.90;;;;;;5033116;28;20267;-85
2023/10/29 10:14:25;;;;;;;2.60;1.20;;;15.80;99.90;;;;;;5028476;28;20221;-85
2023/10/29 10:17:08;;;;;;;1.23;0.80;;;15.80;99.90;;;;;;5024989;28;20260;-85
2023/10/29 10:19:34;;;;;;;2.70;1.03;;;15.80;99.90;;;;;;5016926;28;20224;-85
2023/10/29 10:22:03;;;;;;;2.37;0.90;;;15.80;99.90;;;;;;5031435;28;20236;-84
2023/10/29 10:24:38;;;;;;;1.97;0.93;;;15.90;99.90;;;;;;5031565;28;20223;-83
2023/10/29 10:27:05;;;;;;;3.70;0.80;;;15.90;99.90;;;;;;5029494;28;20239;-83
2023/10/29 10:29:32;;;;;;;1.60;0.90;;;15.90;99.90;;;;;;5010744;28;20235;-83
2023/10/29 10:32:03;;;;;;;3.90;1.33;;;15.90;99.90;;;;;;5009100;28;20928;-84
2023/10/29 10:34:31;;;;;;;4.50;1.00;;;15.80;99.90;;;;;;5022071;28;20919;-83
2023/10/29 10:37:00;;;;;;;4.53;0.80;;;15.70;99.90;;;;;;5035599;28;20228;-83
2023/10/29 10:39:31;;;;;;;3.73;1.10;;;15.60;99.90;;;;;;5034921;28;20224;-84
2023/10/29 10:42:00;;;;;;;3.97;0.90;;;15.60;99.90;;;;;;5023024;28;20710;-83
2023/10/29 10:44:28;;;;;;;4.93;0.93;;;15.50;99.90;;;;;;5038613;28;20246;-84
2023/10/29 10:46:57;;;;;;;3.17;0.93;;;15.40;99.90;;;;;;5035286;28;20286;-84
2023/10/29 10:49:25;;;;;;;1.83;0.90;;;15.40;99.90;;;;;;5042892;28;20230;-84
2023/10/29 10:51:54;;;;;;;2.17;1.00;;;15.30;99.90;;;;;;5035862;28;20230;-84
2023/10/29 10:54:22;;;;;;;3.37;1.07;;;15.20;99.90;;;;;;5034104;28;20747;-84
2023/10/29 10:56:51;;;;;;;2.53;1.07;;;15.20;99.90;;;;;;5029832;28;20251;-85
2023/10/29 10:59:19;;;;;;;5.10;1.30;;;15.10;99.90;;;;;;5034264;28;20273;-84
2023/10/29 11:01:47;;;;;;;3.10;0.93;;;15.00;99.90;;;;;;5035441;28;20236;-84
2023/10/29 11:04:14;;;;;;;2.27;1.10;;;14.80;99.90;;;;;;5035033;28;20730;-85
2023/10/29 11:06:42;;;;;;;5.10;1.40;;;14.60;99.90;;;;;;5034038;28;20252;-84
2023/10/29 11:09:12;;;;;;;1.97;0.90;;;14.40;99.90;;;;;;5030895;28;20232;-85
2023/10/29 11:11:45;;;;;;;2.80;1.30;;;14.20;99.90;;;;;;5032649;28;20232;-85
2023/10/29 11:14:15;;;;;;;4.37;1.00;;;14.00;99.90;;;;;;5033192;28;20239;-84
2023/10/29 11:16:49;;;;;;;4.33;1.00;;;13.90;99.90;;;;;;5032243;28;20235;-83
2023/10/29 11:19:45;;;;;;;3.17;1.13;;;13.80;99.90;;;;;;5033955;28;20763;-83
2023/10/29 11:22:16;;;;;;;2.57;0.90;;;13.70;99.90;;;;;;5033505;28;20226;-83
2023/10/29 11:24:43;;;;;;;4.97;1.10;;;13.80;99.90;;;;;;5033229;28;20278;-82
2023/10/29 11:27:36;;;;;;;4.33;1.30;;;13.90;99.90;;;;;;5031735;28;20261;-82
2023/10/29 11:30:15;;;;;;;2.33;0.90;;;14.00;99.90;;;;;;5032653;28;20670;-83
2023/10/29 11:32:42;;;;;;;3.23;1.10;;;14.00;99.90;;;;;;5033680;28;20235;-84
2023/10/29 11:35:20;;;;;;;3.00;1.10;;;14.10;99.90;;;;;;5032281;28;20233;-83
2023/10/29 11:37:48;;;;;;;4.07;1.00;;;14.10;99.90;;;;;;5034149;28;20227;-83
2023/10/29 11:40:35;;;;;;;4.17;1.33;;;14.10;99.90;;;;;;5032193;28;20235;-83
2023/10/29 11:43:17;;;;;;;3.47;1.10;;;14.00;99.90;;;;;;5030792;28;20226;-82
2023/10/29 11:45:58;;;;;;;2.23;0.93;;;14.10;99.90;;;;;;5033171;28;20222;-83
2023/10/29 11:48:25;;;;;;;2.57;1.17;;;14.10;99.90;;;;;;5031541;28;20661;-82
2023/10/29 11:51:20;;;;;;;3.70;1.23;;;14.20;99.90;;;;;;5032748;28;20711;-84
2023/10/29 11:53:49;;;;;;;4.70;1.30;;;14.40;99.90;;;;;;5027056;28;20231;-83
2023/10/29 11:56:17;;;;;;;3.90;1.10;;;14.60;99.90;;;;;;5033406;28;20231;-84
2023/10/29 11:58:44;;;;;;;2.50;1.20;;;14.70;99.90;;;;;;5032067;28;20222;-84
2023/10/29 12:01:12;;;;;;;6.07;1.30;;;14.90;99.90;;;;;;5031545;28;20314;-84
2023/10/29 12:03:39;;;;;;;3.07;1.10;;;15.10;99.90;;;;;;5033382;28;20228;-83
2023/10/29 12:06:05;;;;;;;3.47;1.10;;;15.30;99.90;;;;;;5033054;28;20236;-84
2023/10/29 12:08:32;;;;;;;3.77;1.40;;;15.40;99.90;;;;;;5025162;28;20231;-83
2023/10/29 12:11:00;;;;;;;3.50;1.10;;;15.60;99.90;;;;;;5032828;28;20230;-83
2023/10/29 12:13:40;;;;;;;3.97;1.23;;;15.70;99.90;;;;;;5029674;28;20220;-83
2023/10/29 12:16:08;;;;;;;3.97;1.20;;;15.90;99.90;;;;;;5032165;28;20225;-85
2023/10/29 12:18:38;;;;;;;3.53;1.43;;;16.00;99.90;;;;;;5031513;28;20220;-84
2023/10/29 12:21:06;;;;;;;4.47;2.00;;;16.00;99.90;;;;;;5025663;28;20235;-84
2023/10/29 12:23:33;;;;;;;3.60;1.10;;;16.00;99.90;;;;;;5030872;28;20242;-84
2023/10/29 12:26:04;;;;;;;3.70;1.10;;;16.00;99.90;;;;;;5031562;28;20240;-85
2023/10/29 12:28:32;;;;;;;2.40;1.13;;;16.00;99.90;;;;;;5075096;28;20653;-84
2023/10/29 12:30:59;;;;;;;5.13;1.40;;;15.90;99.90;;;;;;5057892;28;20321;-84
2023/10/29 12:33:26;;;;;;;2.30;0.90;;;15.80;99.90;;;;;;5043505;28;20227;-86
2023/10/29 12:35:56;;;;;;;3.70;1.30;;;15.80;99.90;;;;;;5065238;28;20227;-85
2023/10/29 12:38:25;;;;;;;5.63;1.30;;;15.70;99.90;;;;;;5039614;28;20451;-86
2023/10/29 12:41:06;;;;;;;4.33;1.40;;;15.70;99.90;;;;;;5046507;28;20583;-85
2023/10/29 12:43:37;;;;;;;5.67;1.30;;;15.60;99.90;;;;;;5071497;28;20235;-83
2023/10/29 12:46:05;;;;;;;4.93;1.43;;;15.60;99.90;;;;;;5072513;28;20715;-83
2023/10/29 12:48:32;;;;;;;3.83;0.87;;;15.60;99.90;;;;;;5068380;28;20228;-84
2023/10/29 12:51:00;;;;;;;4.47;1.33;;;15.60;99.90;;;;;;5070166;28;20628;-83
2023/10/29 12:53:28;;;;;;;5.43;1.70;;;15.60;99.90;;;;;;5069136;28;21007;-84
2023/10/29 12:55:56;;;;;;;3.40;1.00;;;15.60;99.90;;;;;;5069762;28;20648;-84
2023/10/29 12:58:23;;;;;;;3.60;1.20;;;15.70;99.90;;;;;;5067923;28;20452;-83
2023/10/29 13:00:51;;;;;;;3.80;1.30;;;15.70;99.90;;;;;;5069000;28;20751;-83
2023/10/29 13:03:17;;;;;;;3.90;1.00;;;15.80;99.90;;;;;;5045702;28;20234;-84
2023/10/29 13:05:44;;;;;;;3.87;1.20;;;15.80;99.90;;;;;;5065391;28;20221;-84
2023/10/29 13:08:14;;;;;;;3.40;0.97;;;15.90;99.90;;;;;;5058019;28;20234;-83
2023/10/29 13:10:43;;;;;;;3.43;1.20;;;15.90;99.90;;;;;;5057804;28;20294;-84
2023/10/29 13:13:10;;;;;;;2.83;0.83;;;16.00;99.90;;;;;;5066796;28;20234;-84
2023/10/29 13:15:36;;;;;;;2.90;0.87;;;16.00;99.90;;;;;;5054564;28;20726;-83
2023/10/29 13:18:03;;;;;;;3.00;0.90;;;16.10;99.90;;;;;;5066008;28;20223;-83
2023/10/29 13:20:30;;;;;;;3.03;1.00;;;16.10;99.90;;;;;;5059074;28;20253;-84
2023/10/29 13:22:57;;;;;;;6.60;1.37;;;16.20;99.90;;;;;;5069412;28;20760;-83
2023/10/29 13:25:25;;;;;;;2.23;0.90;;;16.20;99.90;;;;;;5068875;28;20231;-85
2023/10/29 13:27:52;;;;;;;3.13;1.13;;;16.10;99.90;;;;;;5069466;28;20444;-84
2023/10/29 13:30:19;;;;;;;4.97;1.30;;;16.10;99.90;;;;;;5060285;28;20214;-83
2023/10/29 13:32:46;;;;;;;4.10;1.20;;;16.00;99.90;;;;;;5051087;28;20234;-82
2023/10/29 13:35:16;;;;;;;5.53;1.17;;;15.90;99.90;;;;;;5070947;28;20232;-84
2023/10/29 13:37:44;;;;;;;3.87;1.20;;;15.80;99.90;;;;;;5077152;28;20224;-84
2023/10/29 13:40:11;;;;;;;5.43;1.10;;;15.70;99.90;;;;;;5052327;28;20254;-85
2023/10/29 13:42:39;;;;;;;4.23;1.33;;;15.60;99.90;;;;;;5031064;23;20766;-79
2023/10/29 13:45:07;;;;;;;3.27;0.90;;;15.50;99.90;;;;;;4983558;28;20226;-79
2023/10/29 13:47:33;;;;;;;4.43;1.40;;;15.50;99.90;;;;;;4984275;28;20690;-79
2023/10/29 13:50:00;;;;;;;3.53;0.90;;;15.40;99.90;;;;;;4984610;28;20239;-79
2023/10/29 13:52:27;;;;;;;2.03;1.07;;;15.30;99.90;;;;;;4979803;28;20232;-79
2023/10/29 13:54:53;;;;;;;3.63;0.90;;;15.30;99.90;;;;;;4976585;28;20435;-79
2023/10/29 13:57:20;;;;;;;2.57;1.00;;;15.20;99.90;;;;;;4972816;28;20225;-79
2023/10/29 13:59:48;;;;;;;2.17;1.03;;;15.20;99.90;;;;;;4971293;28;20247;-80
2023/10/29 14:02:15;;;;;;;1.83;0.93;;;15.10;99.90;;;;;;4972283;28;20234;-79
2023/10/29 14:04:42;;;;;;;3.70;1.00;;;15.20;99.90;;;;;;4971211;28;21047;-79
2023/10/29 14:07:09;;;;;;;3.50;0.77;;;15.10;99.90;;;;;;4965541;28;20240;-80
2023/10/29 14:09:35;;;;;;;5.77;1.30;;;15.00;99.90;;;;;;4979269;28;20335;-79
2023/10/29 14:12:02;;;;;;;3.53;1.07;;;15.00;99.90;;;;;;4975674;28;21013;-79
2023/10/29 14:14:29;;;;;;;6.93;1.40;;;14.90;99.90;;;;;;4975432;28;20236;-79
2023/10/29 14:16:57;;;;;;;5.40;1.27;;;14.80;99.90;;;;;;4972938;28;20565;-79
2023/10/29 14:19:24;;;;;;;5.47;1.07;;;14.80;99.90;;;;;;4974498;28;20233;-79
2023/10/29 14:21:52;;;;;;;2.17;0.90;;;14.70;99.90;;;;;;4977050;28;20701;-79
2023/10/29 14:24:19;;;;;;;3.53;1.07;;;14.70;99.90;;;;;;4969440;28;20237;-79
2023/10/29 14:26:46;;;;;;;2.40;1.10;;;14.60;99.90;;;;;;4970103;28;20246;-79
2023/10/29 14:29:13;;;;;;;4.90;1.37;;;14.50;99.90;;;;;;4976230;28;20230;-79
2023/10/29 14:31:40;;;;;;;3.23;1.10;;;14.50;99.90;;;;;;4979165;28;20229;-80
2023/10/29 14:34:08;;;;;;;2.93;1.00;;;14.50;99.90;;;;;;4981048;28;20231;-79
2023/10/29 14:36:36;;;;;;;3.53;0.90;;;14.40;99.90;;;;;;4974475;28;20273;-80
2023/10/29 14:39:03;;;;;;;2.30;1.00;;;14.40;99.90;;;;;;4978841;28;20234;-79
2023/10/29 14:41:29;;;;;;;2.93;1.00;;;14.40;99.90;;;;;;4973964;28;20296;-79
2023/10/29 14:43:56;;;;;;;3.97;1.07;;;14.30;99.90;;;;;;4976117;28;20223;-79
2023/10/29 14:46:23;;;;;;;3.23;1.10;;;14.30;99.90;;;;;;4977175;28;20221;-79
2023/10/29 14:48:49;;;;;;;3.27;1.00;;;14.30;99.90;;;;;;4976603;28;20229;-79
2023/10/29 14:51:17;;;;;;;2.77;1.00;;;14.20;99.90;;;;;;4974219;28;20236;-79
2023/10/29 14:53:44;;;;;;;3.40;0.90;;;14.20;99.90;;;;;;4971848;28;20226;-79
2023/10/29 14:56:12;;;;;;;15.77;13.27;;;14.10;99.90;;;;;;4975535;28;20235;-79
2023/10/29 14:58:38;;;;;;;7.57;2.87;;;14.10;99.90;;;;;;4976392;28;20226;-79
2023/10/29 15:01:07;;;;;;;4.17;1.40;;;14.10;99.90;;;;;;4975744;28;20672;-79
2023/10/29 15:03:34;;;;;;;3.83;1.50;;;14.10;99.90;;;;;;4975624;28;20775;-79
2023/10/29 15:06:01;;;;;;;4.97;2.40;;;14.00;99.90;;;;;;4963959;28;20226;-79
2023/10/29 15:08:29;;;;;;;3.80;1.40;;;14.00;99.90;;;;;;4970543;28;20549;-79
2023/10/29 15:10:57;;;;;;;3.87;1.33;;;14.00;99.90;;;;;;4968319;28;20233;-79
2023/10/29 15:13:24;;;;;;;4.23;1.80;;;13.90;99.90;;;;;;4972862;28;20315;-79
2023/10/29 15:15:50;;;;;;;6.17;2.57;;;13.90;99.90;;;;;;4975794;28;20223;-79
2023/10/29 15:18:18;;;;;;;3.00;1.90;;;13.90;99.90;;;;;;4973856;28;20746;-79
2023/10/29 15:20:45;;;;;;;3.50;2.63;;;13.80;99.90;;;;;;4976305;28;20232;-79
2023/10/29 15:23:11;;;;;;;2.67;1.77;;;13.70;99.90;;;;;;4976975;28;20237;-79
2023/10/29 15:25:43;;;;;;;2.13;1.20;;;13.70;99.90;;;;;;4976574;28;20847;-79
2023/10/29 15:28:09;;;;;;;3.50;1.37;;;13.60;99.90;;;;;;4964629;28;20221;-78
2023/10/29 15:30:36;;;;;;;4.13;1.50;;;13.50;99.90;;;;;;4968925;28;20226;-79
2023/10/29 15:33:02;;;;;;;7.53;1.50;;;13.50;99.90;;;;;;4977114;28;20868;-79
2023/10/29 15:35:33;;;;;;;4.87;1.20;;;13.50;99.90;;;;;;4983257;28;20239;-79
2023/10/29 15:38:00;;;;;;;7.47;4.03;;;13.40;99.90;;;;;;4977827;28;20231;-79
2023/10/29 15:40:26;;;;;;;2.73;1.37;;;13.30;99.90;;;;;;4975328;28;20239;-79
2023/10/29 15:42:54;;;;;;;3.40;1.07;;;13.20;99.90;;;;;;4976651;28;20239;-78
2023/10/29 15:45:21;;;;;;;6.50;3.13;;;13.20;99.90;;;;;;4978833;28;20636;-78
2023/10/29 15:47:47;;;;;;;4.10;1.53;;;13.10;99.90;;;;;;4980144;28;20523;-79
2023/10/29 15:50:14;;;;;;;4.20;1.40;;;13.00;99.90;;;;;;4970019;28;20225;-78
2023/10/29 15:52:42;;;;;;;4.93;2.00;;;12.90;99.90;;;;;;4979246;28;20321;-78
2023/10/29 15:55:09;;;;;;;3.10;1.20;;;12.90;99.90;;;;;;4966435;28;20234;-78
2023/10/29 15:57:36;;;;;;;5.83;1.33;;;12.80;99.90;;;;;;4978011;28;20228;-78
2023/10/29 16:00:07;;;;;;;4.73;1.73;;;12.70;99.90;;;;;;4975005;28;20257;-78
2023/10/29 16:02:35;;;;;;;13.63;12.17;;;12.60;99.90;;;;;;4979832;28;20320;-78
2023/10/29 16:05:02;;;;;;;4.03;1.70;;;12.50;99.90;;;;;;4975587;28;20261;-78
2023/10/29 16:07:28;;;;;;;4.60;1.50;;;12.40;99.90;;;;;;4980134;28;20231;-78
2023/10/29 16:09:55;;;;;;;3.80;3.00;;;12.40;99.90;;;;;;4979986;28;20236;-78
2023/10/29 16:12:22;;;;;;;2.60;1.03;;;12.40;99.90;;;;;;4985284;28;20244;-78
2023/10/29 16:14:50;;;;;;;4.17;1.57;;;12.30;99.90;;;;;;4977335;28;20229;-78
2023/10/29 16:17:18;;;;;;;6.00;3.77;;;12.20;99.90;;;;;;4979094;28;20328;-79
2023/10/29 16:19:45;;;;;;;4.00;3.70;;;12.20;99.90;;;;;;4982312;28;20229;-78
2023/10/29 16:22:12;;;;;;;2.87;2.67;;;12.10;99.90;;;;;;4981146;28;20271;-78
2023/10/29 16:24:38;;;;;;;6.70;5.93;;;12.10;99.90;;;;;;4979741;28;20610;-78
2023/10/29 16:27:05;;;;;;;3.17;2.00;;;12.10;99.90;;;;;;4986798;28;20231;-78
2023/10/29 16:29:32;;;;;;;3.23;1.53;;;12.10;99.90;;;;;;4974958;28;20286;-79
2023/10/29 16:32:01;;;;;;;2.93;1.93;;;12.00;99.90;;;;;;4975477;28;20261;-78
2023/10/29 16:34:29;;;;;;;2.17;1.40;;;12.10;99.90;;;;;;4974228;28;20225;-78
2023/10/29 16:36:56;;;;;;;5.07;3.63;;;12.00;99.90;;;;;;4974147;28;20446;-78
2023/10/29 16:39:23;;;;;;;4.30;1.70;;;12.00;99.90;;;;;;4967707;28;20230;-78
2023/10/29 16:41:50;;;;;;;3.73;1.80;;;12.00;99.90;;;;;;4975038;28;20229;-78
2023/10/29 16:44:17;;;;;;;3.00;1.33;;;12.00;99.90;;;;;;4973441;28;20783;-79
2023/10/29 16:46:44;;;;;;;2.67;1.33;;;11.90;99.90;;;;;;4968934;28;20239;-79
2023/10/29 16:49:10;;;;;;;4.27;1.30;;;11.90;99.90;;;;;;4965987;28;20232;-79
2023/10/29 16:51:38;;;;;;;2.93;1.30;;;11.90;99.90;;;;;;4971558;28;20236;-79
2023/10/29 16:54:06;;;;;;;2.73;1.23;;;11.90;99.90;;;;;;4982099;28;20375;-79
2023/10/29 16:56:33;;;;;;;2.03;1.10;;;12.00;99.90;;;;;;4976347;28;20233;-79
2023/10/29 16:59:00;;;;;;;2.40;1.50;;;12.00;99.90;;;;;;4973998;28;20221;-79
2023/10/29 17:01:27;;;;;;;2.33;1.17;;;12.00;99.90;;;;;;4980154;28;20284;-79
2023/10/29 17:03:53;;;;;;;2.37;1.33;;;12.00;99.90;;;;;;4982740;28;20217;-78
2023/10/29 17:06:20;;;;;;;2.77;1.17;;;12.00;99.90;;;;;;4984033;28;20233;-79
2023/10/29 17:08:48;;;;;;;2.00;1.20;;;12.00;99.90;;;;;;4983063;28;20659;-79
2023/10/29 17:11:15;;;;;;;1.43;1.00;;;12.10;99.90;;;;;;4970602;28;20231;-79
2023/10/29 17:13:42;;;;;;;2.83;1.30;;;12.10;99.90;;;;;;4979580;28;20231;-79
2023/10/29 17:16:09;;;;;;;2.90;1.07;;;12.10;99.90;;;;;;4974381;28;20477;-79
2023/10/29 17:18:35;;;;;;;6.63;1.13;;;12.20;99.90;;;;;;4980906;28;20599;-79
2023/10/29 17:21:02;;;;;;;2.57;1.13;;;12.20;99.90;;;;;;4977475;28;20233;-79
2023/10/29 17:23:29;;;;;;;1.17;1.00;;;12.20;99.90;;;;;;4981404;28;20733;-78
2023/10/29 17:25:57;;;;;;;2.73;1.10;;;12.30;99.90;;;;;;4982413;28;20230;-79
2023/10/29 17:28:24;;;;;;;1.77;1.03;;;12.30;99.90;;;;;;4979747;28;20213;-79
2023/10/29 17:30:50;;;;;;;3.07;1.00;;;12.30;99.90;;;;;;4981084;28;20231;-79
2023/10/29 17:33:17;;;;;;;3.03;1.00;;;12.30;99.90;;;;;;4984511;28;20229;-79
2023/10/29 17:35:44;;;;;;;4.07;1.43;;;12.30;99.90;;;;;;4981566;28;20735;-79
2023/10/29 17:38:10;;;;;;;3.10;1.20;;;12.30;99.90;;;;;;4980784;28;20231;-79
2023/10/29 17:40:37;;;;;;;25.00;16.27;;;12.40;99.90;;;;;;4983379;28;20247;-79
2023/10/29 17:43:05;;;;;;;39.80;36.50;;;12.40;99.90;;;;;;4982474;28;20240;-79
2023/10/29 17:45:36;;;;;;;11.67;10.70;;;12.40;99.90;;;;;;4982973;28;20228;-79
2023/10/29 17:48:04;;;;;;;3.57;2.53;;;12.40;99.90;;;;;;4982355;28;20282;-79
2023/10/29 17:50:29;;;;;;;5.40;4.90;;;12.40;99.90;;;;;;4983989;28;20249;-79
2023/10/29 17:52:56;;;;;;;8.80;8.00;;;12.50;99.90;;;;;;4983737;28;20862;-79
2023/10/29 17:55:23;;;;;;;13.53;12.50;;;12.40;99.90;;;;;;4984795;28;20644;-79
2023/10/29 17:57:50;;;;;;;5.83;3.10;;;12.50;99.90;;;;;;4982797;28;20782;-79
2023/10/29 18:00:18;;;;;;;4.33;3.80;;;12.50;99.90;;;;;;4977735;28;20219;-78
2023/10/29 18:02:45;;;;;;;7.50;6.83;;;12.50;99.90;;;;;;4979579;28;20245;-79
2023/10/29 18:05:11;;;;;;;5.50;2.50;;;12.40;99.90;;;;;;4984218;28;20219;-79
2023/10/29 18:07:39;;;;;;;2.60;2.20;;;12.40;99.90;;;;;;4984263;28;20284;-79
2023/10/29 18:10:06;;;;;;;4.17;2.53;;;12.30;99.90;;;;;;4985148;28;20303;-79
2023/10/29 18:12:33;;;;;;;6.17;4.13;;;12.30;99.90;;;;;;4985309;28;20732;-80
2023/10/29 18:15:00;;;;;;;7.20;2.63;;;12.20;99.90;;;;;;4979245;28;20660;-80
2023/10/29 18:17:28;;;;;;;6.67;4.80;;;12.10;99.90;;;;;;4984369;28;20419;-81
2023/10/29 18:19:54;;;;;;;4.80;3.67;;;12.00;99.90;;;;;;4987887;28;20288;-81
2023/10/29 18:22:21;;;;;;;3.73;2.53;;;11.90;99.90;;;;;;4981917;28;20469;-81
2023/10/29 18:24:48;;;;;;;4.30;3.03;;;11.80;99.90;;;;;;4983476;28;20593;-80
2023/10/29 18:27:15;;;;;;;3.60;3.20;;;11.70;99.90;;;;;;4988349;28;20417;-79
2023/10/29 18:29:42;;;;;;;4.63;1.93;;;11.70;99.90;;;;;;4987831;28;20242;-79
2023/10/29 18:32:10;;;;;;;6.40;3.17;;;11.60;99.90;;;;;;4984573;28;20240;-80
2023/10/29 18:34:38;;;;;;;8.03;2.50;;;11.50;99.90;;;;;;4993182;28;20223;-81
2023/10/29 18:37:04;;;;;;;3.27;1.80;;;11.50;99.90;;;;;;4987643;28;20691;-80
2023/10/29 18:39:31;;;;;;;2.87;2.50;;;11.40;99.90;;;;;;4976384;28;20231;-80